Decoded Metar for KPHP (PHILIP in SD, USA) (IATA:PHP) | Meteo·Mobile Aviation Weather
aviador You're here:

KPHP Decoded Metar

PHILIP in SD, USA
Report Time2018-09-22 17:55:00
UTC Time2018-09-22 18:28:31
Flight Rules vfr VFR
Wind250° at 03 kt
W.Decomp.*RWY 23: 3.0 kt HW 0.5 kt RCW
RWY 30: 1.5 kt HW 2.6 kt LCW
W.Rank250° ranks 15
Current wind is below 250° avg. (7.7)
Visibility9999 m
Phenomena:N/A
Clouds:N/A
Expected CloudBase > 5,600 ft AGL from Temp-Dew spread
CeilingNone
Temp23°C (ISA +12)
Dew Point09°C (41% RH)
AAT21.7°C
QNH1014 hPa
Density Alt3,763 ft
Elevation2,205 ft
Report Wrong Elevation
Raw Report
KPHP 221755Z AUTO 25003KT 10SM CLR 23/09 A2994 RMK AO2 SLP128
T02330094 10233 20089 58016=

Extra information for KPHP:More info

Metar Taf Metar & Taf Last 4 Metars F.Rules Stats Wind Profile Meteogram Temp Stats Airport Information Weather charts Add Link Nearby VenuesMetar ALERT Operation Metar Decoded Social comments

AIRNAV info for KPHP